sensor_id;sensor_type;location;lat;lon;timestamp;P1;durP1;ratioP1;P2;durP2;ratioP2
6426;SDS011;3246;42.664;23.308;2023-07-31T00:00:12;5.15;;;3.20;;
6426;SDS011;3246;42.664;23.308;2023-07-31T00:02:40;3.22;;;2.80;;
6426;SDS011;3246;42.664;23.308;2023-07-31T00:05:09;3.08;;;2.88;;
6426;SDS011;3246;42.664;23.308;2023-07-31T00:07:36;3.95;;;3.65;;
6426;SDS011;3246;42.664;23.308;2023-07-31T00:10:02;3.95;;;3.53;;
6426;SDS011;3246;42.664;23.308;2023-07-31T00:12:29;3.35;;;3.15;;
6426;SDS011;3246;42.664;23.308;2023-07-31T00:14:56;3.42;;;3.13;;
6426;SDS011;3246;42.664;23.308;2023-07-31T00:17:23;3.33;;;3.13;;
6426;SDS011;3246;42.664;23.308;2023-07-31T00:19:50;2.97;;;2.78;;
6426;SDS011;3246;42.664;23.308;2023-07-31T00:22:18;3.78;;;3.47;;
6426;SDS011;3246;42.664;23.308;2023-07-31T00:24:45;3.47;;;3.28;;
6426;SDS011;3246;42.664;23.308;2023-07-31T00:27:12;3.80;;;3.50;;
6426;SDS011;3246;42.664;23.308;2023-07-31T00:29:38;3.58;;;3.38;;
6426;SDS011;3246;42.664;23.308;2023-07-31T00:32:06;3.92;;;3.63;;
6426;SDS011;3246;42.664;23.308;2023-07-31T00:34:33;4.43;;;4.13;;
6426;SDS011;3246;42.664;23.308;2023-07-31T00:37:00;3.97;;;3.78;;
6426;SDS011;3246;42.664;23.308;2023-07-31T00:39:29;4.20;;;3.70;;
6426;SDS011;3246;42.664;23.308;2023-07-31T00:41:56;4.00;;;3.80;;
6426;SDS011;3246;42.664;23.308;2023-07-31T00:44:23;4.30;;;4.00;;
6426;SDS011;3246;42.664;23.308;2023-07-31T00:46:50;7.18;;;4.82;;
6426;SDS011;3246;42.664;23.308;2023-07-31T00:49:17;6.15;;;5.63;;
6426;SDS011;3246;42.664;23.308;2023-07-31T00:51:44;6.88;;;6.43;;
6426;SDS011;3246;42.664;23.308;2023-07-31T00:54:10;6.18;;;5.78;;
6426;SDS011;3246;42.664;23.308;2023-07-31T00:56:39;11.93;;;9.25;;
6426;SDS011;3246;42.664;23.308;2023-07-31T00:59:08;15.50;;;13.90;;
6426;SDS011;3246;42.664;23.308;2023-07-31T01:01:35;21.20;;;15.90;;
6426;SDS011;3246;42.664;23.308;2023-07-31T01:04:02;12.43;;;11.43;;
6426;SDS011;3246;42.664;23.308;2023-07-31T01:06:30;9.25;;;8.55;;
6426;SDS011;3246;42.664;23.308;2023-07-31T01:09:03;8.55;;;7.90;;
6426;SDS011;3246;42.664;23.308;2023-07-31T01:11:38;9.35;;;8.45;;
6426;SDS011;3246;42.664;23.308;2023-07-31T01:14:14;7.82;;;7.28;;
6426;SDS011;3246;42.664;23.308;2023-07-31T01:16:40;8.68;;;7.97;;
6426;SDS011;3246;42.664;23.308;2023-07-31T01:19:07;10.23;;;9.27;;
6426;SDS011;3246;42.664;23.308;2023-07-31T01:22:04;9.23;;;8.52;;
6426;SDS011;3246;42.664;23.308;2023-07-31T01:24:45;12.27;;;11.05;;
6426;SDS011;3246;42.664;23.308;2023-07-31T01:27:23;10.98;;;10.07;;
6426;SDS011;3246;42.664;23.308;2023-07-31T01:29:54;11.85;;;10.90;;
6426;SDS011;3246;42.664;23.308;2023-07-31T01:32:25;13.50;;;12.20;;
6426;SDS011;3246;42.664;23.308;2023-07-31T01:34:55;13.48;;;12.10;;
6426;SDS011;3246;42.664;23.308;2023-07-31T01:37:27;14.18;;;12.88;;
6426;SDS011;3246;42.664;23.308;2023-07-31T01:39:55;15.50;;;13.63;;
6426;SDS011;3246;42.664;23.308;2023-07-31T01:42:23;17.27;;;15.65;;
6426;SDS011;3246;42.664;23.308;2023-07-31T01:44:50;16.92;;;15.30;;
6426;SDS011;3246;42.664;23.308;2023-07-31T01:47:16;18.20;;;16.35;;
6426;SDS011;3246;42.664;23.308;2023-07-31T01:49:43;18.02;;;16.30;;
6426;SDS011;3246;42.664;23.308;2023-07-31T01:52:10;18.90;;;16.92;;
6426;SDS011;3246;42.664;23.308;2023-07-31T01:54:37;18.17;;;16.33;;
6426;SDS011;3246;42.664;23.308;2023-07-31T01:57:04;18.65;;;16.83;;
6426;SDS011;3246;42.664;23.308;2023-07-31T01:59:32;19.20;;;17.27;;
6426;SDS011;3246;42.664;23.308;2023-07-31T02:01:59;18.83;;;16.92;;
6426;SDS011;3246;42.664;23.308;2023-07-31T02:04:26;19.50;;;17.55;;
6426;SDS011;3246;42.664;23.308;2023-07-31T02:06:53;20.02;;;18.13;;
6426;SDS011;3246;42.664;23.308;2023-07-31T02:09:20;22.00;;;19.90;;
6426;SDS011;3246;42.664;23.308;2023-07-31T02:11:46;21.75;;;19.48;;
6426;SDS011;3246;42.664;23.308;2023-07-31T02:14:13;21.55;;;19.42;;
6426;SDS011;3246;42.664;23.308;2023-07-31T02:16:41;23.00;;;20.73;;
6426;SDS011;3246;42.664;23.308;2023-07-31T02:19:08;22.13;;;19.85;;
6426;SDS011;3246;42.664;23.308;2023-07-31T02:21:35;21.27;;;19.10;;
6426;SDS011;3246;42.664;23.308;2023-07-31T02:24:02;21.88;;;19.63;;
6426;SDS011;3246;42.664;23.308;2023-07-31T02:26:29;22.33;;;19.70;;
6426;SDS011;3246;42.664;23.308;2023-07-31T02:28:56;21.95;;;19.65;;
6426;SDS011;3246;42.664;23.308;2023-07-31T02:31:22;21.85;;;19.83;;
6426;SDS011;3246;42.664;23.308;2023-07-31T02:33:51;23.55;;;20.88;;
6426;SDS011;3246;42.664;23.308;2023-07-31T02:36:17;23.20;;;20.80;;
6426;SDS011;3246;42.664;23.308;2023-07-31T02:38:44;22.98;;;20.67;;
6426;SDS011;3246;42.664;23.308;2023-07-31T02:41:11;20.88;;;18.88;;
6426;SDS011;3246;42.664;23.308;2023-07-31T02:43:38;21.35;;;19.35;;
6426;SDS011;3246;42.664;23.308;2023-07-31T02:46:04;22.95;;;20.75;;
6426;SDS011;3246;42.664;23.308;2023-07-31T02:48:31;21.55;;;19.35;;
6426;SDS011;3246;42.664;23.308;2023-07-31T02:51:00;22.83;;;20.13;;
6426;SDS011;3246;42.664;23.308;2023-07-31T02:53:26;22.55;;;20.23;;
6426;SDS011;3246;42.664;23.308;2023-07-31T02:55:53;20.95;;;18.80;;
6426;SDS011;3246;42.664;23.308;2023-07-31T02:58:20;19.98;;;17.95;;
6426;SDS011;3246;42.664;23.308;2023-07-31T03:00:47;22.52;;;18.88;;
6426;SDS011;3246;42.664;23.308;2023-07-31T03:03:13;21.88;;;19.67;;
6426;SDS011;3246;42.664;23.308;2023-07-31T03:05:40;21.48;;;19.48;;
6426;SDS011;3246;42.664;23.308;2023-07-31T03:08:08;22.58;;;20.35;;
6426;SDS011;3246;42.664;23.308;2023-07-31T03:10:35;24.33;;;18.50;;
6426;SDS011;3246;42.664;23.308;2023-07-31T03:13:02;20.63;;;18.58;;
6426;SDS011;3246;42.664;23.308;2023-07-31T03:15:29;20.70;;;18.05;;
6426;SDS011;3246;42.664;23.308;2023-07-31T03:17:55;21.05;;;18.95;;
6426;SDS011;3246;42.664;23.308;2023-07-31T03:20:22;20.40;;;18.38;;
6426;SDS011;3246;42.664;23.308;2023-07-31T03:22:49;19.80;;;17.90;;
6426;SDS011;3246;42.664;23.308;2023-07-31T03:25:17;28.63;;;19.30;;
6426;SDS011;3246;42.664;23.308;2023-07-31T03:27:44;21.77;;;19.52;;
6426;SDS011;3246;42.664;23.308;2023-07-31T03:30:11;21.98;;;19.77;;
6426;SDS011;3246;42.664;23.308;2023-07-31T03:32:37;21.38;;;19.17;;
6426;SDS011;3246;42.664;23.308;2023-07-31T03:35:04;21.75;;;19.58;;
6426;SDS011;3246;42.664;23.308;2023-07-31T03:37:32;23.10;;;19.50;;
6426;SDS011;3246;42.664;23.308;2023-07-31T03:39:58;21.65;;;19.40;;
6426;SDS011;3246;42.664;23.308;2023-07-31T03:42:26;23.65;;;21.30;;
6426;SDS011;3246;42.664;23.308;2023-07-31T03:44:53;22.33;;;20.02;;
6426;SDS011;3246;42.664;23.308;2023-07-31T03:47:20;23.70;;;21.30;;
6426;SDS011;3246;42.664;23.308;2023-07-31T03:49:47;23.25;;;20.73;;
6426;SDS011;3246;42.664;23.308;2023-07-31T03:52:13;23.33;;;20.83;;
6426;SDS011;3246;42.664;23.308;2023-07-31T03:54:41;24.65;;;22.10;;
6426;SDS011;3246;42.664;23.308;2023-07-31T03:57:09;25.30;;;22.27;;
6426;SDS011;3246;42.664;23.308;2023-07-31T03:59:37;23.50;;;21.02;;
6426;SDS011;3246;42.664;23.308;2023-07-31T04:02:04;24.67;;;21.58;;
6426;SDS011;3246;42.664;23.308;2023-07-31T04:04:31;24.60;;;22.00;;
6426;SDS011;3246;42.664;23.308;2023-07-31T04:06:59;22.85;;;20.38;;
6426;SDS011;3246;42.664;23.308;2023-07-31T04:09:26;26.23;;;22.40;;
6426;SDS011;3246;42.664;23.308;2023-07-31T04:11:52;26.35;;;20.65;;
6426;SDS011;3246;42.664;23.308;2023-07-31T04:14:19;24.25;;;21.77;;
6426;SDS011;3246;42.664;23.308;2023-07-31T04:16:47;25.33;;;21.83;;
6426;SDS011;3246;42.664;23.308;2023-07-31T04:19:14;26.67;;;21.85;;
6426;SDS011;3246;42.664;23.308;2023-07-31T04:21:41;26.10;;;23.13;;
6426;SDS011;3246;42.664;23.308;2023-07-31T04:24:08;25.30;;;22.05;;
6426;SDS011;3246;42.664;23.308;2023-07-31T04:26:35;28.60;;;22.50;;
6426;SDS011;3246;42.664;23.308;2023-07-31T04:29:02;25.63;;;22.85;;
6426;SDS011;3246;42.664;23.308;2023-07-31T04:31:28;25.45;;;22.73;;
6426;SDS011;3246;42.664;23.308;2023-07-31T04:33:57;28.60;;;22.30;;
6426;SDS011;3246;42.664;23.308;2023-07-31T04:36:23;24.63;;;21.42;;
6426;SDS011;3246;42.664;23.308;2023-07-31T04:38:50;21.63;;;19.23;;
6426;SDS011;3246;42.664;23.308;2023-07-31T04:41:17;25.00;;;21.23;;
6426;SDS011;3246;42.664;23.308;2023-07-31T04:43:43;23.00;;;19.88;;
6426;SDS011;3246;42.664;23.308;2023-07-31T04:46:10;21.50;;;19.20;;
6426;SDS011;3246;42.664;23.308;2023-07-31T04:48:37;26.65;;;23.08;;
6426;SDS011;3246;42.664;23.308;2023-07-31T04:51:05;26.38;;;22.67;;
6426;SDS011;3246;42.664;23.308;2023-07-31T04:53:32;27.88;;;21.27;;
6426;SDS011;3246;42.664;23.308;2023-07-31T04:55:59;23.90;;;21.35;;
6426;SDS011;3246;42.664;23.308;2023-07-31T04:58:26;24.45;;;21.15;;
6426;SDS011;3246;42.664;23.308;2023-07-31T05:00:52;26.35;;;21.05;;
6426;SDS011;3246;42.664;23.308;2023-07-31T05:03:19;23.23;;;20.83;;
6426;SDS011;3246;42.664;23.308;2023-07-31T05:05:46;20.83;;;18.60;;
6426;SDS011;3246;42.664;23.308;2023-07-31T05:08:14;23.10;;;20.60;;
6426;SDS011;3246;42.664;23.308;2023-07-31T05:10:42;28.45;;;20.52;;
6426;SDS011;3246;42.664;23.308;2023-07-31T05:13:09;23.77;;;21.23;;
6426;SDS011;3246;42.664;23.308;2023-07-31T05:15:36;19.98;;;18.10;;
6426;SDS011;3246;42.664;23.308;2023-07-31T05:18:03;21.92;;;19.63;;
6426;SDS011;3246;42.664;23.308;2023-07-31T05:20:29;18.23;;;16.52;;
6426;SDS011;3246;42.664;23.308;2023-07-31T05:22:56;21.38;;;19.30;;
6426;SDS011;3246;42.664;23.308;2023-07-31T05:25:24;15.98;;;14.48;;
6426;SDS011;3246;42.664;23.308;2023-07-31T05:27:51;17.15;;;15.55;;
6426;SDS011;3246;42.664;23.308;2023-07-31T05:30:18;16.15;;;14.68;;
6426;SDS011;3246;42.664;23.308;2023-07-31T05:32:46;15.30;;;13.80;;
6426;SDS011;3246;42.664;23.308;2023-07-31T05:35:13;17.40;;;15.45;;
6426;SDS011;3246;42.664;23.308;2023-07-31T05:37:39;15.55;;;13.98;;
6426;SDS011;3246;42.664;23.308;2023-07-31T05:40:07;34.28;;;29.60;;
6426;SDS011;3246;42.664;23.308;2023-07-31T05:42:35;14.73;;;13.43;;
6426;SDS011;3246;42.664;23.308;2023-07-31T05:45:04;13.32;;;12.13;;
6426;SDS011;3246;42.664;23.308;2023-07-31T05:47:31;12.98;;;11.55;;
6426;SDS011;3246;42.664;23.308;2023-07-31T05:49:58;11.75;;;10.65;;
6426;SDS011;3246;42.664;23.308;2023-07-31T05:52:25;12.73;;;11.45;;
6426;SDS011;3246;42.664;23.308;2023-07-31T05:54:52;11.50;;;10.50;;
6426;SDS011;3246;42.664;23.308;2023-07-31T05:57:19;10.93;;;9.93;;
6426;SDS011;3246;42.664;23.308;2023-07-31T05:59:47;10.10;;;9.20;;
6426;SDS011;3246;42.664;23.308;2023-07-31T06:02:14;9.10;;;7.93;;
6426;SDS011;3246;42.664;23.308;2023-07-31T06:04:41;8.10;;;7.50;;
6426;SDS011;3246;42.664;23.308;2023-07-31T06:07:07;7.20;;;6.45;;
6426;SDS011;3246;42.664;23.308;2023-07-31T06:09:34;8.95;;;7.40;;
6426;SDS011;3246;42.664;23.308;2023-07-31T06:12:01;7.03;;;6.53;;
6426;SDS011;3246;42.664;23.308;2023-07-31T06:14:28;6.43;;;5.93;;
6426;SDS011;3246;42.664;23.308;2023-07-31T06:16:56;6.82;;;6.32;;
6426;SDS011;3246;42.664;23.308;2023-07-31T06:19:23;6.28;;;5.82;;
6426;SDS011;3246;42.664;23.308;2023-07-31T06:21:49;5.90;;;5.50;;
6426;SDS011;3246;42.664;23.308;2023-07-31T06:24:16;5.35;;;4.95;;
6426;SDS011;3246;42.664;23.308;2023-07-31T06:26:45;6.90;;;5.15;;
6426;SDS011;3246;42.664;23.308;2023-07-31T06:29:12;5.88;;;5.47;;
6426;SDS011;3246;42.664;23.308;2023-07-31T06:31:40;7.70;;;6.97;;
6426;SDS011;3246;42.664;23.308;2023-07-31T06:34:08;9.25;;;8.38;;
6426;SDS011;3246;42.664;23.308;2023-07-31T06:36:35;5.45;;;5.05;;
6426;SDS011;3246;42.664;23.308;2023-07-31T06:39:01;5.60;;;5.13;;
6426;SDS011;3246;42.664;23.308;2023-07-31T06:41:29;6.57;;;4.70;;
6426;SDS011;3246;42.664;23.308;2023-07-31T06:43:55;5.50;;;4.88;;
6426;SDS011;3246;42.664;23.308;2023-07-31T06:46:22;5.55;;;5.05;;
6426;SDS011;3246;42.664;23.308;2023-07-31T06:48:49;5.53;;;5.10;;
6426;SDS011;3246;42.664;23.308;2023-07-31T06:51:17;6.47;;;5.97;;
6426;SDS011;3246;42.664;23.308;2023-07-31T06:53:44;5.40;;;4.95;;
6426;SDS011;3246;42.664;23.308;2023-07-31T06:56:11;5.10;;;3.55;;
6426;SDS011;3246;42.664;23.308;2023-07-31T06:58:38;4.68;;;4.15;;
6426;SDS011;3246;42.664;23.308;2023-07-31T07:01:04;4.28;;;3.92;;
6426;SDS011;3246;42.664;23.308;2023-07-31T07:03:32;3.67;;;3.47;;
6426;SDS011;3246;42.664;23.308;2023-07-31T07:05:58;4.15;;;3.85;;
6426;SDS011;3246;42.664;23.308;2023-07-31T07:08:27;4.55;;;4.15;;
6426;SDS011;3246;42.664;23.308;2023-07-31T07:10:53;4.55;;;4.15;;
6426;SDS011;3246;42.664;23.308;2023-07-31T07:13:20;4.97;;;4.57;;
6426;SDS011;3246;42.664;23.308;2023-07-31T07:15:47;8.45;;;4.90;;
6426;SDS011;3246;42.664;23.308;2023-07-31T07:18:14;4.32;;;3.90;;
6426;SDS011;3246;42.664;23.308;2023-07-31T07:20:45;3.92;;;3.53;;
6426;SDS011;3246;42.664;23.308;2023-07-31T07:23:13;4.43;;;3.42;;
6426;SDS011;3246;42.664;23.308;2023-07-31T07:25:41;4.43;;;3.65;;
6426;SDS011;3246;42.664;23.308;2023-07-31T07:28:08;4.53;;;4.22;;
6426;SDS011;3246;42.664;23.308;2023-07-31T07:30:35;4.32;;;3.92;;
6426;SDS011;3246;42.664;23.308;2023-07-31T07:33:02;4.22;;;3.92;;
6426;SDS011;3246;42.664;23.308;2023-07-31T07:35:29;4.80;;;4.50;;
6426;SDS011;3246;42.664;23.308;2023-07-31T07:37:56;3.75;;;3.47;;
6426;SDS011;3246;42.664;23.308;2023-07-31T07:40:22;5.65;;;5.25;;
6426;SDS011;3246;42.664;23.308;2023-07-31T07:42:51;4.97;;;4.57;;
6426;SDS011;3246;42.664;23.308;2023-07-31T07:45:17;4.30;;;4.00;;
6426;SDS011;3246;42.664;23.308;2023-07-31T07:47:44;5.60;;;4.65;;
6426;SDS011;3246;42.664;23.308;2023-07-31T07:50:11;4.05;;;3.75;;
6426;SDS011;3246;42.664;23.308;2023-07-31T07:52:38;3.00;;;2.80;;
6426;SDS011;3246;42.664;23.308;2023-07-31T07:55:07;5.43;;;2.75;;
6426;SDS011;3246;42.664;23.308;2023-07-31T07:57:34;3.13;;;2.92;;
6426;SDS011;3246;42.664;23.308;2023-07-31T08:00:03;4.25;;;3.20;;
6426;SDS011;3246;42.664;23.308;2023-07-31T08:02:30;4.05;;;3.50;;
6426;SDS011;3246;42.664;23.308;2023-07-31T08:04:56;3.20;;;3.00;;
6426;SDS011;3246;42.664;23.308;2023-07-31T08:07:23;2.97;;;2.78;;
6426;SDS011;3246;42.664;23.308;2023-07-31T08:09:50;3.50;;;3.28;;
6426;SDS011;3246;42.664;23.308;2023-07-31T08:12:17;4.10;;;3.80;;
6426;SDS011;3246;42.664;23.308;2023-07-31T08:14:44;3.90;;;3.58;;
6426;SDS011;3246;42.664;23.308;2023-07-31T08:17:12;3.92;;;3.15;;
6426;SDS011;3246;42.664;23.308;2023-07-31T08:19:39;3.75;;;3.40;;
6426;SDS011;3246;42.664;23.308;2023-07-31T08:22:05;3.58;;;3.28;;
6426;SDS011;3246;42.664;23.308;2023-07-31T08:24:32;6.15;;;3.30;;
6426;SDS011;3246;42.664;23.308;2023-07-31T08:26:59;3.97;;;3.67;;
6426;SDS011;3246;42.664;23.308;2023-07-31T08:29:25;3.50;;;3.28;;
6426;SDS011;3246;42.664;23.308;2023-07-31T08:31:52;3.92;;;3.47;;
6426;SDS011;3246;42.664;23.308;2023-07-31T08:34:20;3.33;;;3.03;;
6426;SDS011;3246;42.664;23.308;2023-07-31T08:36:47;3.97;;;3.67;;
6426;SDS011;3246;42.664;23.308;2023-07-31T08:39:14;3.45;;;2.90;;
6426;SDS011;3246;42.664;23.308;2023-07-31T08:41:41;3.58;;;3.30;;
6426;SDS011;3246;42.664;23.308;2023-07-31T08:44:07;3.90;;;3.60;;
6426;SDS011;3246;42.664;23.308;2023-07-31T08:46:35;5.88;;;3.35;;
6426;SDS011;3246;42.664;23.308;2023-07-31T08:49:03;2.95;;;2.75;;
6426;SDS011;3246;42.664;23.308;2023-07-31T08:51:34;3.28;;;2.97;;
6426;SDS011;3246;42.664;23.308;2023-07-31T08:54:01;5.63;;;3.15;;
6426;SDS011;3246;42.664;23.308;2023-07-31T08:56:29;4.00;;;2.80;;
6426;SDS011;3246;42.664;23.308;2023-07-31T08:58:57;2.83;;;2.63;;
6426;SDS011;3246;42.664;23.308;2023-07-31T09:01:26;6.63;;;5.97;;
6426;SDS011;3246;42.664;23.308;2023-07-31T09:03:56;3.25;;;3.05;;
6426;SDS011;3246;42.664;23.308;2023-07-31T09:06:25;4.75;;;3.60;;
6426;SDS011;3246;42.664;23.308;2023-07-31T09:08:56;4.00;;;3.70;;
6426;SDS011;3246;42.664;23.308;2023-07-31T09:11:23;3.35;;;3.03;;
6426;SDS011;3246;42.664;23.308;2023-07-31T09:13:50;2.88;;;2.67;;
6426;SDS011;3246;42.664;23.308;2023-07-31T09:16:18;3.15;;;2.58;;
6426;SDS011;3246;42.664;23.308;2023-07-31T09:18:52;5.57;;;3.17;;
6426;SDS011;3246;42.664;23.308;2023-07-31T09:21:21;3.20;;;3.00;;
6426;SDS011;3246;42.664;23.308;2023-07-31T09:23:49;4.05;;;3.03;;
6426;SDS011;3246;42.664;23.308;2023-07-31T09:29:03;3.58;;;3.28;;
6426;SDS011;3246;42.664;23.308;2023-07-31T09:31:33;3.35;;;3.10;;
6426;SDS011;3246;42.664;23.308;2023-07-31T09:34:05;4.60;;;4.20;;
6426;SDS011;3246;42.664;23.308;2023-07-31T09:36:31;5.55;;;3.92;;
6426;SDS011;3246;42.664;23.308;2023-07-31T09:39:01;6.35;;;2.92;;
6426;SDS011;3246;42.664;23.308;2023-07-31T09:41:29;4.38;;;3.47;;
6426;SDS011;3246;42.664;23.308;2023-07-31T09:43:57;3.05;;;2.85;;
6426;SDS011;3246;42.664;23.308;2023-07-31T09:46:26;3.20;;;3.00;;
6426;SDS011;3246;42.664;23.308;2023-07-31T09:48:54;4.38;;;2.80;;
6426;SDS011;3246;42.664;23.308;2023-07-31T09:51:31;3.65;;;2.63;;
6426;SDS011;3246;42.664;23.308;2023-07-31T09:54:03;2.47;;;2.30;;
6426;SDS011;3246;42.664;23.308;2023-07-31T09:56:30;2.80;;;2.60;;
6426;SDS011;3246;42.664;23.308;2023-07-31T09:59:01;3.05;;;2.75;;
6426;SDS011;3246;42.664;23.308;2023-07-31T10:01:29;2.60;;;2.40;;
6426;SDS011;3246;42.664;23.308;2023-07-31T10:03:56;2.92;;;2.05;;
6426;SDS011;3246;42.664;23.308;2023-07-31T10:06:24;2.90;;;2.70;;
6426;SDS011;3246;42.664;23.308;2023-07-31T10:08:52;3.60;;;2.47;;
6426;SDS011;3246;42.664;23.308;2023-07-31T10:11:21;2.10;;;2.00;;
6426;SDS011;3246;42.664;23.308;2023-07-31T10:13:51;2.67;;;2.47;;
6426;SDS011;3246;42.664;23.308;2023-07-31T10:16:20;2.85;;;2.28;;
6426;SDS011;3246;42.664;23.308;2023-07-31T10:18:47;2.67;;;2.47;;
6426;SDS011;3246;42.664;23.308;2023-07-31T10:21:16;3.50;;;3.30;;
6426;SDS011;3246;42.664;23.308;2023-07-31T10:23:44;15.93;;;3.40;;
6426;SDS011;3246;42.664;23.308;2023-07-31T10:26:12;3.67;;;2.08;;
6426;SDS011;3246;42.664;23.308;2023-07-31T10:28:40;2.40;;;2.20;;
6426;SDS011;3246;42.664;23.308;2023-07-31T10:31:09;3.30;;;2.20;;
6426;SDS011;3246;42.664;23.308;2023-07-31T10:33:37;1.85;;;1.75;;
6426;SDS011;3246;42.664;23.308;2023-07-31T10:36:14;2.42;;;2.25;;
6426;SDS011;3246;42.664;23.308;2023-07-31T10:38:44;2.30;;;2.20;;
6426;SDS011;3246;42.664;23.308;2023-07-31T10:41:10;3.05;;;2.20;;
6426;SDS011;3246;42.664;23.308;2023-07-31T10:43:37;1.70;;;1.60;;
6426;SDS011;3246;42.664;23.308;2023-07-31T10:46:07;2.17;;;1.98;;
6426;SDS011;3246;42.664;23.308;2023-07-31T10:48:35;2.08;;;1.98;;
6426;SDS011;3246;42.664;23.308;2023-07-31T10:51:07;1.92;;;1.83;;
6426;SDS011;3246;42.664;23.308;2023-07-31T10:53:36;2.50;;;2.33;;
6426;SDS011;3246;42.664;23.308;2023-07-31T10:56:03;1.77;;;1.67;;
6426;SDS011;3246;42.664;23.308;2023-07-31T10:58:31;4.80;;;2.60;;
6426;SDS011;3246;42.664;23.308;2023-07-31T11:00:59;1.60;;;1.50;;
6426;SDS011;3246;42.664;23.308;2023-07-31T11:03:40;2.42;;;2.33;;
6426;SDS011;3246;42.664;23.308;2023-07-31T11:06:10;2.00;;;1.75;;
6426;SDS011;3246;42.664;23.308;2023-07-31T11:08:41;3.72;;;1.85;;
6426;SDS011;3246;42.664;23.308;2023-07-31T11:11:09;2.10;;;2.00;;
6426;SDS011;3246;42.664;23.308;2023-07-31T11:13:41;2.08;;;1.90;;
6426;SDS011;3246;42.664;23.308;2023-07-31T11:16:10;2.30;;;2.20;;
6426;SDS011;3246;42.664;23.308;2023-07-31T11:18:38;3.15;;;3.05;;
6426;SDS011;3246;42.664;23.308;2023-07-31T11:21:06;2.20;;;1.90;;
6426;SDS011;3246;42.664;23.308;2023-07-31T11:23:36;4.82;;;1.48;;
6426;SDS011;3246;42.664;23.308;2023-07-31T11:26:04;1.90;;;1.80;;
6426;SDS011;3246;42.664;23.308;2023-07-31T11:28:32;1.63;;;1.52;;
6426;SDS011;3246;42.664;23.308;2023-07-31T11:31:00;3.95;;;1.98;;
6426;SDS011;3246;42.664;23.308;2023-07-31T11:33:27;2.15;;;1.92;;
6426;SDS011;3246;42.664;23.308;2023-07-31T11:35:54;2.22;;;2.13;;
6426;SDS011;3246;42.664;23.308;2023-07-31T11:38:21;2.30;;;2.20;;
6426;SDS011;3246;42.664;23.308;2023-07-31T11:40:51;7.35;;;3.45;;
6426;SDS011;3246;42.664;23.308;2023-07-31T11:43:18;2.65;;;2.45;;
6426;SDS011;3246;42.664;23.308;2023-07-31T11:45:46;3.15;;;2.50;;
6426;SDS011;3246;42.664;23.308;2023-07-31T11:48:21;4.80;;;2.30;;
6426;SDS011;3246;42.664;23.308;2023-07-31T11:50:49;2.03;;;1.92;;
6426;SDS011;3246;42.664;23.308;2023-07-31T11:53:17;2.40;;;2.28;;
6426;SDS011;3246;42.664;23.308;2023-07-31T11:55:47;2.90;;;2.70;;
6426;SDS011;3246;42.664;23.308;2023-07-31T11:58:16;3.20;;;3.00;;
6426;SDS011;3246;42.664;23.308;2023-07-31T12:00:45;3.13;;;2.92;;
6426;SDS011;3246;42.664;23.308;2023-07-31T12:03:12;2.88;;;2.67;;
6426;SDS011;3246;42.664;23.308;2023-07-31T12:05:39;4.03;;;3.65;;
6426;SDS011;3246;42.664;23.308;2023-07-31T12:08:09;3.97;;;3.67;;
6426;SDS011;3246;42.664;23.308;2023-07-31T12:10:38;6.07;;;4.57;;
6426;SDS011;3246;42.664;23.308;2023-07-31T12:13:08;4.55;;;4.15;;
6426;SDS011;3246;42.664;23.308;2023-07-31T12:15:40;4.13;;;3.92;;
6426;SDS011;3246;42.664;23.308;2023-07-31T12:18:09;5.97;;;5.47;;
6426;SDS011;3246;42.664;23.308;2023-07-31T12:20:40;6.78;;;6.28;;
6426;SDS011;3246;42.664;23.308;2023-07-31T12:23:12;5.30;;;4.85;;
6426;SDS011;3246;42.664;23.308;2023-07-31T12:25:41;5.43;;;5.03;;
6426;SDS011;3246;42.664;23.308;2023-07-31T12:28:08;5.07;;;4.68;;
6426;SDS011;3246;42.664;23.308;2023-07-31T12:30:37;4.65;;;4.25;;
6426;SDS011;3246;42.664;23.308;2023-07-31T12:33:07;4.30;;;4.00;;
6426;SDS011;3246;42.664;23.308;2023-07-31T12:35:41;4.93;;;3.83;;
6426;SDS011;3246;42.664;23.308;2023-07-31T12:38:10;4.07;;;3.78;;
6426;SDS011;3246;42.664;23.308;2023-07-31T12:40:38;4.53;;;4.13;;
6426;SDS011;3246;42.664;23.308;2023-07-31T12:43:06;4.45;;;4.07;;
6426;SDS011;3246;42.664;23.308;2023-07-31T12:45:33;5.18;;;4.78;;
6426;SDS011;3246;42.664;23.308;2023-07-31T12:48:02;5.97;;;5.53;;
6426;SDS011;3246;42.664;23.308;2023-07-31T12:50:29;6.05;;;5.30;;
6426;SDS011;3246;42.664;23.308;2023-07-31T12:52:55;6.88;;;6.20;;
6426;SDS011;3246;42.664;23.308;2023-07-31T12:55:22;7.07;;;5.88;;
6426;SDS011;3246;42.664;23.308;2023-07-31T12:57:50;6.55;;;5.82;;
6426;SDS011;3246;42.664;23.308;2023-07-31T13:00:17;5.13;;;4.72;;
6426;SDS011;3246;42.664;23.308;2023-07-31T13:02:44;9.93;;;5.28;;
6426;SDS011;3246;42.664;23.308;2023-07-31T13:05:12;7.18;;;5.95;;
6426;SDS011;3246;42.664;23.308;2023-07-31T13:07:39;8.60;;;6.20;;
6426;SDS011;3246;42.664;23.308;2023-07-31T13:10:06;5.38;;;5.07;;
6426;SDS011;3246;42.664;23.308;2023-07-31T13:12:34;6.97;;;6.28;;
6426;SDS011;3246;42.664;23.308;2023-07-31T13:15:00;6.07;;;5.47;;
6426;SDS011;3246;42.664;23.308;2023-07-31T13:17:27;8.32;;;5.53;;
6426;SDS011;3246;42.664;23.308;2023-07-31T13:19:54;5.82;;;5.32;;
6426;SDS011;3246;42.664;23.308;2023-07-31T13:22:22;5.30;;;5.00;;
6426;SDS011;3246;42.664;23.308;2023-07-31T13:24:49;4.95;;;4.60;;
6426;SDS011;3246;42.664;23.308;2023-07-31T13:27:16;4.40;;;3.95;;
6426;SDS011;3246;42.664;23.308;2023-07-31T13:29:44;5.03;;;4.72;;
6426;SDS011;3246;42.664;23.308;2023-07-31T13:32:11;4.43;;;4.13;;
6426;SDS011;3246;42.664;23.308;2023-07-31T13:34:38;4.25;;;3.95;;
6426;SDS011;3246;42.664;23.308;2023-07-31T13:37:05;5.22;;;4.53;;
6426;SDS011;3246;42.664;23.308;2023-07-31T13:39:33;3.83;;;3.60;;
6426;SDS011;3246;42.664;23.308;2023-07-31T13:42:01;4.30;;;4.00;;
6426;SDS011;3246;42.664;23.308;2023-07-31T13:44:29;4.32;;;3.80;;
6426;SDS011;3246;42.664;23.308;2023-07-31T13:46:55;4.32;;;3.97;;
6426;SDS011;3246;42.664;23.308;2023-07-31T13:49:22;4.80;;;4.50;;
6426;SDS011;3246;42.664;23.308;2023-07-31T13:51:49;5.53;;;4.13;;
6426;SDS011;3246;42.664;23.308;2023-07-31T13:54:16;4.20;;;4.00;;
6426;SDS011;3246;42.664;23.308;2023-07-31T13:56:44;6.13;;;3.90;;
6426;SDS011;3246;42.664;23.308;2023-07-31T13:59:11;4.55;;;4.15;;
6426;SDS011;3246;42.664;23.308;2023-07-31T14:01:40;4.35;;;4.05;;
6426;SDS011;3246;42.664;23.308;2023-07-31T14:04:07;5.82;;;3.60;;
6426;SDS011;3246;42.664;23.308;2023-07-31T14:06:33;7.18;;;6.50;;
6426;SDS011;3246;42.664;23.308;2023-07-31T14:09:00;4.72;;;4.43;;
6426;SDS011;3246;42.664;23.308;2023-07-31T14:11:28;4.95;;;4.55;;
6426;SDS011;3246;42.664;23.308;2023-07-31T14:13:56;3.40;;;3.20;;
6426;SDS011;3246;42.664;23.308;2023-07-31T14:16:23;4.70;;;4.30;;
6426;SDS011;3246;42.664;23.308;2023-07-31T14:18:50;5.10;;;4.45;;
6426;SDS011;3246;42.664;23.308;2023-07-31T14:21:18;5.43;;;3.53;;
6426;SDS011;3246;42.664;23.308;2023-07-31T14:23:45;3.67;;;3.40;;
6426;SDS011;3246;42.664;23.308;2023-07-31T14:26:12;4.05;;;3.65;;
6426;SDS011;3246;42.664;23.308;2023-07-31T14:28:39;4.47;;;4.18;;
6426;SDS011;3246;42.664;23.308;2023-07-31T14:31:07;4.43;;;4.03;;
6426;SDS011;3246;42.664;23.308;2023-07-31T14:33:34;4.70;;;4.30;;
6426;SDS011;3246;42.664;23.308;2023-07-31T14:36:00;3.92;;;3.63;;
6426;SDS011;3246;42.664;23.308;2023-07-31T14:38:28;4.32;;;4.03;;
6426;SDS011;3246;42.664;23.308;2023-07-31T14:40:54;4.20;;;3.83;;
6426;SDS011;3246;42.664;23.308;2023-07-31T14:43:22;4.30;;;3.85;;
6426;SDS011;3246;42.664;23.308;2023-07-31T14:45:49;3.85;;;3.47;;
6426;SDS011;3246;42.664;23.308;2023-07-31T14:48:18;4.07;;;3.78;;
6426;SDS011;3246;42.664;23.308;2023-07-31T14:50:44;3.90;;;3.60;;
6426;SDS011;3246;42.664;23.308;2023-07-31T14:53:11;4.75;;;3.65;;
6426;SDS011;3246;42.664;23.308;2023-07-31T14:55:38;6.20;;;3.38;;
6426;SDS011;3246;42.664;23.308;2023-07-31T14:58:05;4.28;;;3.88;;